createdAt,value
2022-09-22T00:00:45.496Z,290.97
2022-09-22T00:06:17.028Z,302.51
2022-09-22T00:11:48.867Z,307.90
2022-09-22T00:17:20.266Z,322.74
2022-09-22T00:22:51.725Z,325.30
2022-09-22T00:28:23.808Z,317.43
2022-09-22T00:33:55.127Z,311.70
2022-09-22T00:39:26.412Z,312.00
2022-09-22T00:44:57.862Z,311.70
2022-09-22T00:50:29.422Z,314.09
2022-09-22T00:56:00.720Z,317.43
2022-09-22T01:01:32.312Z,320.54
2022-09-22T01:07:03.462Z,326.92
2022-09-22T01:12:34.912Z,331.21
2022-09-22T01:18:06.681Z,324.34
2022-09-22T01:23:38.472Z,319.29
2022-09-22T01:29:10.184Z,301.67
2022-09-22T01:34:41.482Z,288.16
2022-09-22T01:40:13.100Z,276.74
2022-09-22T01:45:44.745Z,270.80
2022-09-22T01:51:16.309Z,270.13
2022-09-22T01:56:47.620Z,268.58
2022-09-22T02:02:18.847Z,267.49
2022-09-22T02:07:50.293Z,267.71
2022-09-22T02:13:22.098Z,269.24
2022-09-22T02:18:53.675Z,269.69
2022-09-22T02:24:25.007Z,271.92
2022-09-22T02:29:56.273Z,269.91
2022-09-22T02:35:27.548Z,271.47
2022-09-22T02:40:59.036Z,271.92
2022-09-22T02:46:31.291Z,270.58
2022-09-22T02:52:02.421Z,274.20
2022-09-22T02:57:33.992Z,271.47
2022-09-22T03:03:05.678Z,269.24
2022-09-22T03:08:36.840Z,272.83
2022-09-22T03:14:08.527Z,273.51
2022-09-22T03:19:40.230Z,273.97
2022-09-22T03:25:12.141Z,276.97
2022-09-22T03:36:13.712Z,274.88
2022-09-22T03:41:45.582Z,276.51
2022-09-22T03:47:17.772Z,277.21
2022-09-22T03:52:49.711Z,275.11
2022-09-22T03:58:21.563Z,275.11
2022-09-22T04:03:53.304Z,276.04
2022-09-22T04:09:25.253Z,276.74
2022-09-22T04:14:56.693Z,275.35
2022-09-22T04:20:28.009Z,274.88
2022-09-22T04:25:59.551Z,271.92
2022-09-22T04:31:30.997Z,270.13
2022-09-22T04:37:02.593Z,270.35
2022-09-22T04:42:34.496Z,270.13
2022-09-22T04:48:06.352Z,269.02
2022-09-22T04:53:37.711Z,265.97
2022-09-22T04:59:08.945Z,269.91
2022-09-22T05:04:40.313Z,267.05
2022-09-22T05:10:12.383Z,265.97
2022-09-22T05:15:43.858Z,267.27
2022-09-22T05:21:15.573Z,260.48
2022-09-22T05:26:46.879Z,260.48
2022-09-22T05:32:18.585Z,259.25
2022-09-22T05:37:50.081Z,255.01
2022-09-22T05:43:21.659Z,255.21
2022-09-22T05:48:53.656Z,258.63
2022-09-22T05:54:25.095Z,264.05
2022-09-22T05:59:57.021Z,262.57
2022-09-22T06:05:28.602Z,261.94
2022-09-22T06:11:00.252Z,280.52
2022-09-22T06:16:31.602Z,294.37
2022-09-22T06:22:03.014Z,302.23
2022-09-22T06:27:34.824Z,312.00
2022-09-22T06:33:06.448Z,315.30
2022-09-22T06:38:37.805Z,314.09
2022-09-22T06:49:38.926Z,300.57
2022-09-22T06:55:10.303Z,293.84
2022-09-22T07:00:41.879Z,280.29
2022-09-22T07:06:17.990Z,273.28
2022-09-22T07:11:44.690Z,264.26
2022-09-22T07:17:15.960Z,257.62
2022-09-22T07:22:47.327Z,250.15
2022-09-22T07:28:18.592Z,239.56
2022-09-22T07:33:49.953Z,234.09
2022-09-22T07:39:21.319Z,225.72
2022-09-22T07:44:53.263Z,225.10
2022-09-22T07:50:25.266Z,221.45
2022-09-22T07:55:56.555Z,218.07
2022-09-22T08:01:27.909Z,214.08
2022-09-22T08:06:59.499Z,209.57
2022-09-22T08:12:30.764Z,208.64
2022-09-22T08:18:02.142Z,205.37
2022-09-22T08:23:33.824Z,204.48
2022-09-22T08:29:05.170Z,204.48
2022-09-22T08:34:36.543Z,205.63
2022-09-22T08:40:08.487Z,208.24
2022-09-22T08:45:39.987Z,212.56
2022-09-22T08:56:41.158Z,211.46
2022-09-22T09:02:12.675Z,210.38
2022-09-22T09:18:43.150Z,216.34
2022-09-22T09:29:46.687Z,224.18
2022-09-22T09:35:18.255Z,224.33
2022-09-22T09:40:49.489Z,227.60
2022-09-22T09:46:21.012Z,231.29
2022-09-22T09:51:52.706Z,233.93
2022-09-22T09:57:31.107Z,236.28
2022-09-22T10:02:55.808Z,238.52
2022-09-22T10:08:27.155Z,238.52
2022-09-22T10:13:58.561Z,242.75
2022-09-22T10:24:59.495Z,245.48
2022-09-22T10:30:31.139Z,244.56
2022-09-22T10:36:05.453Z,245.48
2022-09-22T10:41:34.710Z,244.93
2022-09-22T10:47:06.022Z,245.29
2022-09-22T10:52:37.781Z,242.93
2022-09-22T10:58:09.585Z,240.79
2022-09-22T11:03:41.332Z,242.21
2022-09-22T11:09:13.283Z,242.75
2022-09-22T11:14:44.960Z,243.47
2022-09-22T11:20:17.316Z,242.39
2022-09-22T11:25:49.036Z,241.50
2022-09-22T11:31:20.771Z,240.97
2022-09-22T11:36:52.334Z,238.86
2022-09-22T11:42:23.980Z,238.52
2022-09-22T11:47:55.737Z,236.45
2022-09-22T11:53:27.781Z,236.45
2022-09-22T11:58:59.358Z,235.27
2022-09-22T12:04:31.023Z,235.77
2022-09-22T12:06:43.236Z,234.60
2022-09-22T12:12:14.279Z,237.14
2022-09-22T12:17:45.782Z,237.14
2022-09-22T12:23:17.015Z,236.28
2022-09-22T12:28:48.309Z,235.10
2022-09-22T12:34:19.739Z,234.43
2022-09-22T12:39:51.141Z,233.76
2022-09-22T12:45:22.422Z,233.76
2022-09-22T12:50:54.085Z,234.43
2022-09-22T12:56:25.357Z,236.45
2022-09-22T13:01:56.763Z,236.80
2022-09-22T13:07:28.254Z,235.27
2022-09-22T13:12:59.897Z,235.27
2022-09-22T13:18:31.672Z,235.60
2022-09-22T13:24:02.855Z,238.34
2022-09-22T13:29:34.200Z,238.69
2022-09-22T13:35:05.579Z,236.11
2022-09-22T13:40:37.093Z,235.27
2022-09-22T13:46:08.352Z,236.80
2022-09-22T13:51:39.733Z,237.14
2022-09-22T13:57:11.399Z,235.77
2022-09-22T14:02:42.959Z,240.44
2022-09-22T14:08:17.204Z,236.62
2022-09-22T14:13:46.394Z,238.00
2022-09-22T14:19:18.045Z,238.86
2022-09-22T14:24:49.508Z,240.79
2022-09-22T14:30:21.487Z,240.09
2022-09-22T14:35:52.712Z,239.56
2022-09-22T14:46:53.530Z,239.91
2022-09-22T14:54:46.314Z,246.21
2022-09-22T15:00:17.574Z,252.08
2022-09-22T15:05:48.722Z,251.11
2022-09-22T15:11:20.018Z,249.21
2022-09-22T15:16:51.308Z,251.50
2022-09-22T15:22:22.595Z,248.64
2022-09-22T15:27:54.052Z,251.11
2022-09-22T15:33:25.751Z,250.54
2022-09-22T15:38:57.495Z,252.46
2022-09-22T15:44:29.062Z,250.92
2022-09-22T15:50:00.497Z,252.46
2022-09-22T15:55:32.198Z,252.08
2022-09-22T16:01:04.377Z,252.66
2022-09-22T16:06:35.887Z,251.30
2022-09-22T16:12:07.915Z,250.35
2022-09-22T16:17:39.480Z,249.02
2022-09-22T16:23:11.505Z,250.35
2022-09-22T16:28:43.003Z,249.96
2022-09-22T16:34:14.203Z,251.69
2022-09-22T16:39:45.483Z,252.27
2022-09-22T16:45:16.923Z,253.24
2022-09-22T16:50:48.260Z,256.81
2022-09-22T16:56:20.031Z,257.21
2022-09-22T17:01:51.815Z,259.04
2022-09-22T17:07:23.148Z,257.62
2022-09-22T17:12:54.573Z,259.04
2022-09-22T17:18:26.151Z,261.10
2022-09-22T17:23:58.292Z,259.04
2022-09-22T17:29:29.929Z,263.62
2022-09-22T17:35:01.851Z,262.15
2022-09-22T17:40:33.547Z,262.78
2022-09-22T17:46:05.502Z,261.31
2022-09-22T17:51:37.085Z,261.31
2022-09-22T17:57:08.833Z,261.52
2022-09-22T18:02:40.454Z,264.26
2022-09-22T18:08:12.216Z,263.41
2022-09-22T18:13:43.877Z,264.68
2022-09-22T18:19:15.580Z,270.35
2022-09-22T18:24:46.779Z,269.24
2022-09-22T18:30:18.174Z,278.15
2022-09-22T18:35:49.519Z,276.04
2022-09-22T18:41:21.364Z,275.11
2022-09-22T18:46:53.105Z,276.04
2022-09-22T18:52:24.602Z,276.74
2022-09-22T18:57:56.170Z,280.05
2022-09-22T19:03:27.910Z,279.57
2022-09-22T19:08:59.401Z,278.62
2022-09-22T19:14:30.833Z,279.09
2022-09-22T19:20:02.250Z,281.01
2022-09-22T19:25:34.144Z,284.17
2022-09-22T19:31:05.822Z,286.15
2022-09-22T19:36:37.445Z,283.19
2022-09-22T19:42:09.220Z,284.91
2022-09-22T19:47:41.059Z,279.81
2022-09-22T19:53:12.593Z,281.49
2022-09-22T20:04:14.037Z,281.73
2022-09-22T20:09:45.699Z,282.46
2022-09-22T20:15:17.422Z,282.70
2022-09-22T20:20:51.070Z,286.15
2022-09-22T20:26:21.438Z,282.70
2022-09-22T20:31:53.435Z,278.38
2022-09-22T20:42:56.768Z,286.65
2022-09-22T20:54:00.120Z,289.18
2022-09-22T20:59:31.947Z,293.58
2022-09-22T21:05:04.170Z,297.30
2022-09-22T21:10:36.119Z,300.02
2022-09-22T21:16:07.764Z,300.02
2022-09-22T21:21:39.332Z,308.19
2022-09-22T21:27:10.768Z,312.00
2022-09-22T21:32:42.500Z,310.52
2022-09-22T21:38:14.250Z,310.52
2022-09-22T21:49:15.155Z,307.90
2022-09-22T21:54:47.005Z,309.06
2022-09-22T22:00:31.966Z,306.46
2022-09-22T22:05:50.415Z,307.33
2022-09-22T22:11:22.195Z,303.63
2022-09-22T22:16:53.935Z,304.19
2022-09-22T22:27:54.809Z,307.90
2022-09-22T22:33:26.703Z,307.61
2022-09-22T22:38:58.202Z,307.90
2022-09-22T22:44:30.063Z,311.11
2022-09-22T22:50:01.618Z,310.23
2022-09-22T22:55:33.588Z,312.30
2022-09-22T23:01:05.131Z,316.52
2022-09-22T23:06:36.786Z,324.02
2022-09-22T23:12:08.312Z,327.58
2022-09-22T23:17:39.968Z,328.56
2022-09-22T23:23:11.444Z,331.21
2022-09-22T23:28:43.138Z,326.60
2022-09-22T23:34:14.979Z,325.30
2022-09-22T23:39:46.798Z,327.90
2022-09-22T23:45:18.430Z,326.27
2022-09-22T23:50:50.320Z,324.34
2022-09-22T23:56:22.303Z,313.49
